KCCO

Newnan Coweta County Airport

Atlanta, Georgia, USA
METAR KCCO 191515Z AUTO 28003KT 10SM BKN012 BKN017 OVC031 26/21 A3006 RMK AO2 T02550214
Observed Flight Rules
Aug-19 @ 15:15 UTC (23 minutes ago) Marginal Visual Flight Rules
Wind Visibility Clouds
280° at 3 knots 10 miles
  • Broken at 1,200' AGL
  • Broken at 1,700' AGL
  • Overcast at 3,100' AGL
Temperatures Readings
Current 26°C / 79°F
Dewpoint 21°C / 70°F
Humidity 74%
Altimeter 30.06" Hg
Pressure 1018 hPa
Elevation 296
METAR KCCO 191515Z AUTO 28003KT 10SM BKN012 BKN017 OVC031 26/21 A3006 RMK AO2 T02550214
Observed Flight Rules
Aug-19 @ 15:15 UTC
(23 minutes ago)
MVFR
Wind Visibility
280° at 3 knots 10 miles
Clouds
  • Broken at 1,200' AGL
  • Broken at 1,700' AGL
  • Overcast at 3,100' AGL
Temperature Dewpoint
26°C / 79°F 21°C / 70°F
Humidity Altimeter Pressure
74% 30.06" Hg 1018 hPa